ADDS METAR Data INFO
IDs: Format: Raw Decoded Include TAF

Data at: 1901 UTC 22 Sep 2017

KDFW 221853Z 15010G17KT 10SM FEW040 BKN055 32/21 A2994 RMK AO2 SLP129 T03220206
KDFW 221753Z 16011G18KT 10SM SCT034 BKN043 32/22 A2997 RMK AO2 SLP137 T03170217 10317 20256 58002
KDFW 221653Z 16011KT 10SM SCT025 SCT030 BKN037 30/22 A2998 RMK AO2 SLP141 T03000222
KDFW 221553Z 17011KT 10SM BKN023 OVC028 28/22 A2998 RMK AO2 SLP142 T02830222
KDFW 221453Z 15013KT 10SM BKN020 BKN026 28/23 A2997 RMK AO2 SLP140 T02780228 53010
KDFW 221444Z 16010KT 10SM BKN022 28/22 A2997 RMK AO2 T02780222
KDFW 221425Z 17012KT 10SM FEW019 SCT027 28/22 A2997 RMK AO2 T02780222
KDFW 221353Z 19011KT 10SM OVC024 27/22 A2996 RMK AO2 SLP137 T02720222
KDFW 221253Z 18010KT 10SM OVC018 26/22 A2995 RMK AO2 SLP132 T02560222
KDFW 221228Z 18008KT 10SM BKN016 26/22 A2995 RMK AO2 T02560222
KDFW 221153Z 18009KT 10SM OVC014 26/22 A2994 RMK AO2 SLP130 T02560222 10261 20239 53008
KDFW 221053Z 18012KT 10SM BKN013 25/22 A2993 RMK AO2 SLP126 T02500222
KDFW 221042Z 18010KT 10SM BKN013 24/22 A2993 RMK AO2 T02440222
KDFW 220953Z 17009KT 10SM SCT014 24/22 A2992 RMK AO2 SLP123 T02440217
KDFW 220853Z 17010KT 10SM SCT015 24/22 A2992 RMK AO2 SLP122 T02440217 50002
KDFW 220753Z 17010KT 10SM CLR 25/22 A2992 RMK AO2 SLP122 T02500217
KDFW 220653Z 16009KT 10SM CLR 26/22 A2992 RMK AO2 SLP122 T02560222
KDFW 220553Z 16011KT 10SM CLR 26/22 A2991 RMK AO2 SLP119 T02610217 10339 20261 403610261 50005
KDFW 220453Z 16010KT 10SM CLR 27/22 A2992 RMK AO2 SLP121 T02670217
KDFW 220353Z 16011KT 10SM CLR 28/21 A2991 RMK AO2 SLP120 T02780211
KDFW 220253Z 16012KT 10SM CLR 29/21 A2990 RMK AO2 SLP114 T02890206 53020
KDFW 220153Z 15015KT 10SM FEW060 FEW250 30/21 A2988 RMK AO2 PK WND 14032/0111 SLP108 T03000211
KDFW 220053Z 14010KT 10SM FEW060 FEW250 32/19 A2984 RMK AO2 SLP095 T03220189
KDFW 212353Z 16011KT 10SM FEW060 FEW250 34/19 A2984 RMK AO2 SLP093 CB DSNT SE MOV NW T03390189 10361 20333 55005
KDFW 212253Z 15010KT 10SM FEW060 34/19 A2984 RMK AO2 SLP092 T03440194
KDFW 212153Z 17011G22KT 10SM SCT060 36/19 A2984 RMK AO2 SLP092 T03560194
KDFW 212053Z 17013G17KT 10SM FEW050 FEW250 36/20 A2985 RMK AO2 SLP098 T03560200 58025
KDFW 211953Z 18010G18KT 10SM FEW050 SCT250 35/21 A2988 RMK AO2 SLP106 T03500211
KDFW 211853Z 18012G17KT 10SM SCT040 SCT250 34/22 A2990 RMK AO2 SLP115 T03440217
KDFW 211753Z 19014G24KT 10SM SCT031 SCT250 33/22 A2993 RMK AO2 SLP123 T03330222 10333 20261 58008
KDFW 211653Z 18013KT 10SM SCT027 32/23 A2994 RMK AO2 SLP129 T03220228
KDFW 211553Z 17016G20KT 10SM BKN025 31/23 A2995 RMK AO2 SLP131 T03060228
KDFW 211453Z 17012KT 10SM SCT019 BKN024 28/23 A2995 RMK AO2 SLP132 BKN V OVC T02830233 51013
KDFW 211353Z 16010KT 10SM BKN020 BKN150 BKN250 27/23 A2994 RMK AO2 SLP129 T02720233
KDFW 211304Z 17009KT 10SM BKN020 BKN150 BKN250 27/23 A2994 RMK AO2 T02670228
KDFW 211253Z 17008KT 10SM SCT020 BKN150 BKN250 27/23 A2993 RMK AO2 SLP126 T02670228
KDFW 211153Z 17012KT 10SM SCT019 BKN150 BKN250 27/23 A2991 RMK AO2 SLP118 T02670228 10294 20267 53009
KDFW 211138Z 17012KT 10SM SCT019 BKN150 BKN250 27/23 A2991 RMK AO2 T02670228
KDFW 211053Z 17016KT 10SM BKN018 BKN022 BKN140 OVC250 27/23 A2990 RMK AO2 SLP114 T02670228
KDFW 211036Z 18013KT 10SM BKN018 BKN021 BKN140 OVC250 27/23 A2990 RMK AO2 T02670233
KDFW 210953Z 18011KT 10SM FEW019 BKN140 BKN250 27/23 A2988 RMK AO2 SLP109 T02720233
KDFW 210853Z 18013G20KT 10SM FEW015 BKN140 BKN250 28/23 A2988 RMK AO2 SLP108 T02780233 53002
KDFW 210753Z 17013G18KT 10SM BKN140 BKN250 28/23 A2987 RMK AO2 SLP105 T02780233